sensor_id;sensor_type;location;lat;lon;timestamp;temperature;humidity
1129;DHT22;553;51.038;7.216;2024-02-14T00:02:04;8.30;99.90
1129;DHT22;553;51.038;7.216;2024-02-14T00:04:32;8.30;99.90
1129;DHT22;553;51.038;7.216;2024-02-14T00:06:59;8.40;99.90
1129;DHT22;553;51.038;7.216;2024-02-14T00:09:26;8.40;99.90
1129;DHT22;553;51.038;7.216;2024-02-14T00:11:53;8.40;99.90
1129;DHT22;553;51.038;7.216;2024-02-14T00:14:20;8.40;99.90
1129;DHT22;553;51.038;7.216;2024-02-14T00:16:47;8.40;99.90
1129;DHT22;553;51.038;7.216;2024-02-14T00:19:14;8.40;99.90
1129;DHT22;553;51.038;7.216;2024-02-14T00:21:41;8.50;99.90
1129;DHT22;553;51.038;7.216;2024-02-14T00:24:08;8.50;99.90
1129;DHT22;553;51.038;7.216;2024-02-14T00:26:35;8.40;99.90
1129;DHT22;553;51.038;7.216;2024-02-14T00:29:02;8.40;99.90
1129;DHT22;553;51.038;7.216;2024-02-14T00:31:29;8.40;99.90
1129;DHT22;553;51.038;7.216;2024-02-14T00:33:56;8.40;99.90
1129;DHT22;553;51.038;7.216;2024-02-14T00:36:23;8.40;99.90
1129;DHT22;553;51.038;7.216;2024-02-14T00:38:50;8.40;99.90
1129;DHT22;553;51.038;7.216;2024-02-14T00:41:17;8.40;99.90
1129;DHT22;553;51.038;7.216;2024-02-14T00:43:44;8.40;99.90
1129;DHT22;553;51.038;7.216;2024-02-14T00:46:17;8.40;99.90
1129;DHT22;553;51.038;7.216;2024-02-14T00:48:44;8.50;99.90
1129;DHT22;553;51.038;7.216;2024-02-14T00:51:11;8.50;99.90
1129;DHT22;553;51.038;7.216;2024-02-14T00:53:38;8.50;99.90
1129;DHT22;553;51.038;7.216;2024-02-14T00:56:05;8.50;99.90
1129;DHT22;553;51.038;7.216;2024-02-14T00:58:32;8.60;99.90
1129;DHT22;553;51.038;7.216;2024-02-14T01:00:59;8.50;99.90
1129;DHT22;553;51.038;7.216;2024-02-14T01:03:26;8.50;99.90
1129;DHT22;553;51.038;7.216;2024-02-14T01:05:53;8.50;99.90
1129;DHT22;553;51.038;7.216;2024-02-14T01:08:20;8.40;99.90
1129;DHT22;553;51.038;7.216;2024-02-14T01:10:47;8.30;99.90
1129;DHT22;553;51.038;7.216;2024-02-14T01:13:18;8.20;99.90
1129;DHT22;553;51.038;7.216;2024-02-14T01:15:45;8.20;99.90
1129;DHT22;553;51.038;7.216;2024-02-14T01:18:11;8.20;99.90
1129;DHT22;553;51.038;7.216;2024-02-14T01:20:38;8.10;99.90
1129;DHT22;553;51.038;7.216;2024-02-14T01:23:06;8.10;99.90
1129;DHT22;553;51.038;7.216;2024-02-14T01:25:32;8.10;99.90
1129;DHT22;553;51.038;7.216;2024-02-14T01:27:59;8.10;99.90
1129;DHT22;553;51.038;7.216;2024-02-14T01:30:26;8.10;99.90
1129;DHT22;553;51.038;7.216;2024-02-14T01:32:54;8.10;99.90
1129;DHT22;553;51.038;7.216;2024-02-14T01:35:21;8.10;99.90
1129;DHT22;553;51.038;7.216;2024-02-14T01:37:47;8.10;99.90
1129;DHT22;553;51.038;7.216;2024-02-14T01:40:14;8.10;99.90
1129;DHT22;553;51.038;7.216;2024-02-14T01:42:41;8.10;99.90
1129;DHT22;553;51.038;7.216;2024-02-14T01:45:09;8.20;99.90
1129;DHT22;553;51.038;7.216;2024-02-14T01:47:36;8.20;99.90
1129;DHT22;553;51.038;7.216;2024-02-14T01:50:03;8.20;99.90
1129;DHT22;553;51.038;7.216;2024-02-14T01:52:30;8.20;99.90
1129;DHT22;553;51.038;7.216;2024-02-14T01:54:58;8.20;99.90
1129;DHT22;553;51.038;7.216;2024-02-14T01:57:25;8.40;99.90
1129;DHT22;553;51.038;7.216;2024-02-14T01:59:53;8.30;99.90
1129;DHT22;553;51.038;7.216;2024-02-14T02:02:21;8.30;99.90
1129;DHT22;553;51.038;7.216;2024-02-14T02:04:48;8.40;99.90
1129;DHT22;553;51.038;7.216;2024-02-14T02:07:15;8.30;99.90
1129;DHT22;553;51.038;7.216;2024-02-14T02:09:41;8.30;99.90
1129;DHT22;553;51.038;7.216;2024-02-14T02:12:08;8.30;99.90
1129;DHT22;553;51.038;7.216;2024-02-14T02:14:36;8.40;99.90
1129;DHT22;553;51.038;7.216;2024-02-14T02:17:03;8.40;99.90
1129;DHT22;553;51.038;7.216;2024-02-14T02:19:34;8.40;99.90
1129;DHT22;553;51.038;7.216;2024-02-14T02:22:01;8.40;99.90
1129;DHT22;553;51.038;7.216;2024-02-14T02:24:28;8.40;99.90
1129;DHT22;553;51.038;7.216;2024-02-14T02:26:55;8.50;99.90
1129;DHT22;553;51.038;7.216;2024-02-14T02:29:23;8.40;99.90
1129;DHT22;553;51.038;7.216;2024-02-14T02:31:50;8.40;99.90
1129;DHT22;553;51.038;7.216;2024-02-14T02:34:17;8.40;99.90
1129;DHT22;553;51.038;7.216;2024-02-14T02:36:44;8.40;99.90
1129;DHT22;553;51.038;7.216;2024-02-14T02:39:13;8.40;99.90
1129;DHT22;553;51.038;7.216;2024-02-14T02:41:40;8.40;99.90
1129;DHT22;553;51.038;7.216;2024-02-14T02:44:07;8.40;99.90
1129;DHT22;553;51.038;7.216;2024-02-14T02:46:34;8.40;99.90
1129;DHT22;553;51.038;7.216;2024-02-14T02:49:00;8.40;99.90
1129;DHT22;553;51.038;7.216;2024-02-14T02:51:28;8.40;99.90
1129;DHT22;553;51.038;7.216;2024-02-14T02:53:56;8.40;99.90
1129;DHT22;553;51.038;7.216;2024-02-14T02:56:24;8.40;99.90
1129;DHT22;553;51.038;7.216;2024-02-14T02:58:55;8.40;99.90
1129;DHT22;553;51.038;7.216;2024-02-14T03:01:22;8.40;99.90
1129;DHT22;553;51.038;7.216;2024-02-14T03:03:51;8.40;99.90
1129;DHT22;553;51.038;7.216;2024-02-14T03:06:18;8.40;99.90
1129;DHT22;553;51.038;7.216;2024-02-14T03:08:44;8.40;99.90
1129;DHT22;553;51.038;7.216;2024-02-14T03:11:11;8.40;99.90
1129;DHT22;553;51.038;7.216;2024-02-14T03:13:38;8.40;99.90
1129;DHT22;553;51.038;7.216;2024-02-14T03:16:07;8.50;99.90
1129;DHT22;553;51.038;7.216;2024-02-14T03:18:34;8.50;99.90
1129;DHT22;553;51.038;7.216;2024-02-14T03:21:02;8.40;99.90
1129;DHT22;553;51.038;7.216;2024-02-14T03:23:29;8.40;99.90
1129;DHT22;553;51.038;7.216;2024-02-14T03:25:56;8.40;99.90
1129;DHT22;553;51.038;7.216;2024-02-14T03:28:23;8.40;99.90
1129;DHT22;553;51.038;7.216;2024-02-14T03:30:51;8.50;99.90
1129;DHT22;553;51.038;7.216;2024-02-14T03:33:18;8.50;99.90
1129;DHT22;553;51.038;7.216;2024-02-14T03:35:45;8.60;99.90
1129;DHT22;553;51.038;7.216;2024-02-14T03:38:13;8.50;99.90
1129;DHT22;553;51.038;7.216;2024-02-14T03:40:41;8.50;99.90
1129;DHT22;553;51.038;7.216;2024-02-14T03:43:08;8.50;99.90
1129;DHT22;553;51.038;7.216;2024-02-14T03:45:38;8.50;99.90
1129;DHT22;553;51.038;7.216;2024-02-14T03:48:05;8.50;99.90
1129;DHT22;553;51.038;7.216;2024-02-14T03:50:32;8.50;99.90
1129;DHT22;553;51.038;7.216;2024-02-14T03:52:59;8.50;99.90
1129;DHT22;553;51.038;7.216;2024-02-14T03:55:26;8.60;99.90
1129;DHT22;553;51.038;7.216;2024-02-14T03:57:53;8.50;99.90
1129;DHT22;553;51.038;7.216;2024-02-14T04:00:19;8.50;99.90
1129;DHT22;553;51.038;7.216;2024-02-14T04:02:49;8.60;99.90
1129;DHT22;553;51.038;7.216;2024-02-14T04:05:17;8.70;99.90
1129;DHT22;553;51.038;7.216;2024-02-14T04:07:44;8.60;99.90
1129;DHT22;553;51.038;7.216;2024-02-14T04:10:15;8.70;99.90
1129;DHT22;553;51.038;7.216;2024-02-14T04:12:42;8.70;99.90
1129;DHT22;553;51.038;7.216;2024-02-14T04:15:09;8.60;99.90
1129;DHT22;553;51.038;7.216;2024-02-14T04:17:36;8.60;99.90
1129;DHT22;553;51.038;7.216;2024-02-14T04:20:03;8.70;99.90
1129;DHT22;553;51.038;7.216;2024-02-14T04:22:31;8.70;99.90
1129;DHT22;553;51.038;7.216;2024-02-14T04:24:57;8.60;99.90
1129;DHT22;553;51.038;7.216;2024-02-14T04:27:24;8.60;99.90
1129;DHT22;553;51.038;7.216;2024-02-14T04:29:51;8.60;99.90
1129;DHT22;553;51.038;7.216;2024-02-14T04:32:18;8.60;99.90
1129;DHT22;553;51.038;7.216;2024-02-14T04:34:46;8.60;99.90
1129;DHT22;553;51.038;7.216;2024-02-14T04:37:12;8.50;99.90
1129;DHT22;553;51.038;7.216;2024-02-14T04:39:41;8.60;99.90
1129;DHT22;553;51.038;7.216;2024-02-14T04:42:08;8.60;99.90
1129;DHT22;553;51.038;7.216;2024-02-14T04:44:35;8.60;99.90
1129;DHT22;553;51.038;7.216;2024-02-14T04:47:02;8.60;99.90
1129;DHT22;553;51.038;7.216;2024-02-14T04:49:29;8.60;99.90
1129;DHT22;553;51.038;7.216;2024-02-14T04:51:57;8.60;99.90
1129;DHT22;553;51.038;7.216;2024-02-14T04:54:24;8.70;99.90
1129;DHT22;553;51.038;7.216;2024-02-14T04:56:52;8.70;99.90
1129;DHT22;553;51.038;7.216;2024-02-14T04:59:23;8.60;99.90
1129;DHT22;553;51.038;7.216;2024-02-14T05:01:50;8.60;99.90
1129;DHT22;553;51.038;7.216;2024-02-14T05:04:19;8.70;99.90
1129;DHT22;553;51.038;7.216;2024-02-14T05:06:47;8.70;99.90
1129;DHT22;553;51.038;7.216;2024-02-14T05:09:15;8.70;99.90
1129;DHT22;553;51.038;7.216;2024-02-14T05:11:42;8.80;99.90
1129;DHT22;553;51.038;7.216;2024-02-14T05:14:09;8.80;99.90
1129;DHT22;553;51.038;7.216;2024-02-14T05:16:36;8.80;99.90
1129;DHT22;553;51.038;7.216;2024-02-14T05:19:03;8.80;99.90
1129;DHT22;553;51.038;7.216;2024-02-14T05:21:30;8.80;99.90
1129;DHT22;553;51.038;7.216;2024-02-14T05:23:56;8.80;99.90
1129;DHT22;553;51.038;7.216;2024-02-14T05:26:23;8.80;99.90
1129;DHT22;553;51.038;7.216;2024-02-14T05:28:50;8.80;99.90
1129;DHT22;553;51.038;7.216;2024-02-14T05:31:17;8.80;99.90
1129;DHT22;553;51.038;7.216;2024-02-14T05:33:43;8.90;99.90
1129;DHT22;553;51.038;7.216;2024-02-14T05:36:10;8.90;99.90
1129;DHT22;553;51.038;7.216;2024-02-14T05:38:37;9.00;99.90
1129;DHT22;553;51.038;7.216;2024-02-14T05:41:04;9.00;99.90
1129;DHT22;553;51.038;7.216;2024-02-14T05:43:31;9.00;99.90
1129;DHT22;553;51.038;7.216;2024-02-14T05:45:57;8.90;99.90
1129;DHT22;553;51.038;7.216;2024-02-14T05:48:24;9.00;99.90
1129;DHT22;553;51.038;7.216;2024-02-14T05:50:52;9.10;99.90
1129;DHT22;553;51.038;7.216;2024-02-14T05:53:19;9.00;99.90
1129;DHT22;553;51.038;7.216;2024-02-14T05:55:46;8.90;99.90
1129;DHT22;553;51.038;7.216;2024-02-14T05:58:13;8.80;99.90
1129;DHT22;553;51.038;7.216;2024-02-14T06:00:40;8.80;99.90
1129;DHT22;553;51.038;7.216;2024-02-14T06:03:07;8.70;99.90
1129;DHT22;553;51.038;7.216;2024-02-14T06:05:34;8.70;99.90
1129;DHT22;553;51.038;7.216;2024-02-14T06:08:01;8.70;99.90
1129;DHT22;553;51.038;7.216;2024-02-14T06:10:29;8.60;99.90
1129;DHT22;553;51.038;7.216;2024-02-14T06:12:56;8.70;99.90
1129;DHT22;553;51.038;7.216;2024-02-14T06:15:23;8.60;99.90
1129;DHT22;553;51.038;7.216;2024-02-14T06:17:50;8.60;99.90
1129;DHT22;553;51.038;7.216;2024-02-14T06:20:18;8.50;99.90
1129;DHT22;553;51.038;7.216;2024-02-14T06:22:45;8.50;99.90
1129;DHT22;553;51.038;7.216;2024-02-14T06:25:26;8.60;99.90
1129;DHT22;553;51.038;7.216;2024-02-14T06:27:53;8.60;99.90
1129;DHT22;553;51.038;7.216;2024-02-14T06:30:20;8.60;99.90
1129;DHT22;553;51.038;7.216;2024-02-14T06:32:47;8.60;99.90
1129;DHT22;553;51.038;7.216;2024-02-14T06:35:14;8.60;99.90
1129;DHT22;553;51.038;7.216;2024-02-14T06:37:46;8.60;99.90
1129;DHT22;553;51.038;7.216;2024-02-14T06:40:25;8.70;99.90
1129;DHT22;553;51.038;7.216;2024-02-14T06:42:53;8.70;99.90
1129;DHT22;553;51.038;7.216;2024-02-14T06:45:21;8.70;99.90
1129;DHT22;553;51.038;7.216;2024-02-14T06:47:48;8.70;99.90
1129;DHT22;553;51.038;7.216;2024-02-14T06:50:14;8.60;99.90
1129;DHT22;553;51.038;7.216;2024-02-14T06:52:41;8.60;99.90
1129;DHT22;553;51.038;7.216;2024-02-14T06:55:08;8.60;99.90
1129;DHT22;553;51.038;7.216;2024-02-14T06:57:35;8.60;99.90
1129;DHT22;553;51.038;7.216;2024-02-14T07:00:02;8.50;99.90
1129;DHT22;553;51.038;7.216;2024-02-14T07:02:32;8.60;99.90
1129;DHT22;553;51.038;7.216;2024-02-14T07:04:59;8.60;99.90
1129;DHT22;553;51.038;7.216;2024-02-14T07:07:26;8.70;99.90
1129;DHT22;553;51.038;7.216;2024-02-14T07:09:54;8.60;99.90
1129;DHT22;553;51.038;7.216;2024-02-14T07:12:20;8.60;99.90
1129;DHT22;553;51.038;7.216;2024-02-14T07:14:47;8.70;99.90
1129;DHT22;553;51.038;7.216;2024-02-14T07:17:14;8.70;99.90
1129;DHT22;553;51.038;7.216;2024-02-14T07:19:41;8.70;99.90
1129;DHT22;553;51.038;7.216;2024-02-14T07:22:10;8.70;99.90
1129;DHT22;553;51.038;7.216;2024-02-14T07:24:37;8.70;99.90
1129;DHT22;553;51.038;7.216;2024-02-14T07:27:04;8.70;99.90
1129;DHT22;553;51.038;7.216;2024-02-14T07:29:31;8.70;99.90
1129;DHT22;553;51.038;7.216;2024-02-14T07:32:01;8.70;99.90
1129;DHT22;553;51.038;7.216;2024-02-14T07:34:28;8.80;99.90
1129;DHT22;553;51.038;7.216;2024-02-14T07:36:55;8.80;99.90
1129;DHT22;553;51.038;7.216;2024-02-14T07:39:23;8.80;99.90
1129;DHT22;553;51.038;7.216;2024-02-14T07:41:50;8.90;99.90
1129;DHT22;553;51.038;7.216;2024-02-14T07:44:18;8.80;99.90
1129;DHT22;553;51.038;7.216;2024-02-14T07:46:45;8.90;99.90
1129;DHT22;553;51.038;7.216;2024-02-14T07:49:12;9.00;99.90
1129;DHT22;553;51.038;7.216;2024-02-14T07:51:39;8.90;99.90
1129;DHT22;553;51.038;7.216;2024-02-14T07:54:05;9.00;99.90
1129;DHT22;553;51.038;7.216;2024-02-14T07:56:33;9.00;99.90
1129;DHT22;553;51.038;7.216;2024-02-14T07:59:00;9.00;99.90
1129;DHT22;553;51.038;7.216;2024-02-14T08:01:27;9.00;99.90
1129;DHT22;553;51.038;7.216;2024-02-14T08:03:54;9.00;99.90
1129;DHT22;553;51.038;7.216;2024-02-14T08:06:21;9.10;99.90
1129;DHT22;553;51.038;7.216;2024-02-14T08:08:48;9.10;99.90
1129;DHT22;553;51.038;7.216;2024-02-14T08:11:24;9.10;99.90
1129;DHT22;553;51.038;7.216;2024-02-14T08:13:51;9.10;99.90
1129;DHT22;553;51.038;7.216;2024-02-14T08:16:19;9.10;99.90
1129;DHT22;553;51.038;7.216;2024-02-14T08:18:46;9.20;99.90
1129;DHT22;553;51.038;7.216;2024-02-14T08:21:15;9.20;99.90
1129;DHT22;553;51.038;7.216;2024-02-14T08:23:42;9.30;99.90
1129;DHT22;553;51.038;7.216;2024-02-14T08:26:09;9.50;99.90
1129;DHT22;553;51.038;7.216;2024-02-14T08:28:37;9.40;99.90
1129;DHT22;553;51.038;7.216;2024-02-14T08:31:12;9.40;99.90
1129;DHT22;553;51.038;7.216;2024-02-14T08:33:39;9.50;99.90
1129;DHT22;553;51.038;7.216;2024-02-14T08:36:07;9.50;99.90
1129;DHT22;553;51.038;7.216;2024-02-14T08:38:34;9.50;99.90
1129;DHT22;553;51.038;7.216;2024-02-14T08:41:05;9.40;99.90
1129;DHT22;553;51.038;7.216;2024-02-14T08:43:32;9.40;99.90
1129;DHT22;553;51.038;7.216;2024-02-14T08:46:00;9.40;99.90
1129;DHT22;553;51.038;7.216;2024-02-14T08:48:27;9.50;99.90
1129;DHT22;553;51.038;7.216;2024-02-14T08:50:56;9.50;99.90
1129;DHT22;553;51.038;7.216;2024-02-14T08:53:23;9.50;99.90
1129;DHT22;553;51.038;7.216;2024-02-14T08:55:53;9.50;99.90
1129;DHT22;553;51.038;7.216;2024-02-14T08:58:19;9.50;99.90
1129;DHT22;553;51.038;7.216;2024-02-14T09:00:46;9.50;99.90
1129;DHT22;553;51.038;7.216;2024-02-14T09:03:14;9.50;99.90
1129;DHT22;553;51.038;7.216;2024-02-14T09:05:40;9.50;99.90
1129;DHT22;553;51.038;7.216;2024-02-14T09:08:08;9.50;99.90
1129;DHT22;553;51.038;7.216;2024-02-14T09:10:35;9.50;99.90
1129;DHT22;553;51.038;7.216;2024-02-14T09:13:01;9.60;99.90
1129;DHT22;553;51.038;7.216;2024-02-14T09:15:28;9.60;99.90
1129;DHT22;553;51.038;7.216;2024-02-14T09:17:57;9.60;99.90
1129;DHT22;553;51.038;7.216;2024-02-14T09:20:23;9.70;99.90
1129;DHT22;553;51.038;7.216;2024-02-14T09:22:50;9.70;99.90
1129;DHT22;553;51.038;7.216;2024-02-14T09:25:17;9.70;99.90
1129;DHT22;553;51.038;7.216;2024-02-14T09:27:44;9.70;99.90
1129;DHT22;553;51.038;7.216;2024-02-14T09:30:13;9.70;99.90
1129;DHT22;553;51.038;7.216;2024-02-14T09:32:57;9.80;99.90
1129;DHT22;553;51.038;7.216;2024-02-14T09:35:24;9.90;99.90
1129;DHT22;553;51.038;7.216;2024-02-14T09:37:52;10.00;99.90
1129;DHT22;553;51.038;7.216;2024-02-14T09:40:18;10.00;99.90
1129;DHT22;553;51.038;7.216;2024-02-14T09:42:57;10.10;99.90
1129;DHT22;553;51.038;7.216;2024-02-14T09:45:28;10.30;99.90
1129;DHT22;553;51.038;7.216;2024-02-14T09:47:56;10.40;99.90
1129;DHT22;553;51.038;7.216;2024-02-14T09:50:24;10.50;99.90
1129;DHT22;553;51.038;7.216;2024-02-14T09:52:54;10.60;99.90
1129;DHT22;553;51.038;7.216;2024-02-14T09:55:23;10.60;99.90
1129;DHT22;553;51.038;7.216;2024-02-14T09:57:52;10.70;99.90
1129;DHT22;553;51.038;7.216;2024-02-14T10:00:19;10.80;99.90
1129;DHT22;553;51.038;7.216;2024-02-14T10:02:46;10.90;99.90
1129;DHT22;553;51.038;7.216;2024-02-14T10:05:13;11.00;99.90
1129;DHT22;553;51.038;7.216;2024-02-14T10:07:43;11.10;99.90
1129;DHT22;553;51.038;7.216;2024-02-14T10:10:11;11.20;99.90
1129;DHT22;553;51.038;7.216;2024-02-14T10:12:38;11.10;99.90
1129;DHT22;553;51.038;7.216;2024-02-14T10:15:08;11.20;99.90
1129;DHT22;553;51.038;7.216;2024-02-14T10:17:35;11.20;99.90
1129;DHT22;553;51.038;7.216;2024-02-14T10:20:03;11.30;99.90
1129;DHT22;553;51.038;7.216;2024-02-14T10:22:35;11.40;99.90
1129;DHT22;553;51.038;7.216;2024-02-14T10:25:06;11.50;99.90
1129;DHT22;553;51.038;7.216;2024-02-14T10:27:38;11.50;99.90
1129;DHT22;553;51.038;7.216;2024-02-14T10:30:06;11.50;99.90
1129;DHT22;553;51.038;7.216;2024-02-14T10:32:40;11.60;99.90
1129;DHT22;553;51.038;7.216;2024-02-14T10:35:07;11.60;99.90
1129;DHT22;553;51.038;7.216;2024-02-14T10:37:36;11.70;99.90
1129;DHT22;553;51.038;7.216;2024-02-14T10:40:03;11.70;99.90
1129;DHT22;553;51.038;7.216;2024-02-14T10:42:31;11.70;99.90
1129;DHT22;553;51.038;7.216;2024-02-14T10:45:02;11.90;99.90
1129;DHT22;553;51.038;7.216;2024-02-14T10:47:32;12.40;99.90
1129;DHT22;553;51.038;7.216;2024-02-14T10:50:05;13.00;99.90
1129;DHT22;553;51.038;7.216;2024-02-14T10:52:35;12.80;99.90
1129;DHT22;553;51.038;7.216;2024-02-14T10:55:05;12.50;99.90
1129;DHT22;553;51.038;7.216;2024-02-14T10:57:32;12.40;99.90
1129;DHT22;553;51.038;7.216;2024-02-14T11:00:08;12.30;99.90
1129;DHT22;553;51.038;7.216;2024-02-14T11:02:36;12.30;99.90
1129;DHT22;553;51.038;7.216;2024-02-14T11:05:05;12.10;99.90
1129;DHT22;553;51.038;7.216;2024-02-14T11:07:33;12.10;99.90
1129;DHT22;553;51.038;7.216;2024-02-14T11:10:07;12.10;99.90
1129;DHT22;553;51.038;7.216;2024-02-14T11:12:35;12.00;99.90
1129;DHT22;553;51.038;7.216;2024-02-14T11:15:16;12.00;99.90
1129;DHT22;553;51.038;7.216;2024-02-14T11:17:44;12.10;99.90
1129;DHT22;553;51.038;7.216;2024-02-14T11:20:21;12.00;99.90
1129;DHT22;553;51.038;7.216;2024-02-14T11:23:02;12.00;99.90
1129;DHT22;553;51.038;7.216;2024-02-14T11:25:39;12.00;99.90
1129;DHT22;553;51.038;7.216;2024-02-14T11:28:16;12.00;99.90
1129;DHT22;553;51.038;7.216;2024-02-14T11:30:44;12.10;99.90
1129;DHT22;553;51.038;7.216;2024-02-14T11:33:23;12.30;99.90
1129;DHT22;553;51.038;7.216;2024-02-14T11:35:54;12.30;99.90
1129;DHT22;553;51.038;7.216;2024-02-14T11:38:25;12.30;99.90
1129;DHT22;553;51.038;7.216;2024-02-14T11:40:56;12.20;99.90
1129;DHT22;553;51.038;7.216;2024-02-14T11:43:23;12.10;99.90
1129;DHT22;553;51.038;7.216;2024-02-14T11:45:51;12.20;99.90
1129;DHT22;553;51.038;7.216;2024-02-14T11:48:21;12.30;99.90
1129;DHT22;553;51.038;7.216;2024-02-14T11:50:53;12.10;99.90
1129;DHT22;553;51.038;7.216;2024-02-14T11:53:20;12.10;99.90
1129;DHT22;553;51.038;7.216;2024-02-14T11:55:47;12.00;99.90
1129;DHT22;553;51.038;7.216;2024-02-14T11:58:16;12.00;99.90
1129;DHT22;553;51.038;7.216;2024-02-14T12:00:44;12.00;99.90
1129;DHT22;553;51.038;7.216;2024-02-14T12:03:15;12.00;99.90
1129;DHT22;553;51.038;7.216;2024-02-14T12:05:42;12.20;99.90
1129;DHT22;553;51.038;7.216;2024-02-14T12:08:14;12.20;99.90
1129;DHT22;553;51.038;7.216;2024-02-14T12:10:46;12.30;99.90
1129;DHT22;553;51.038;7.216;2024-02-14T12:13:22;12.50;99.90
1129;DHT22;553;51.038;7.216;2024-02-14T12:15:50;12.60;99.90
1129;DHT22;553;51.038;7.216;2024-02-14T12:18:19;12.60;99.90
1129;DHT22;553;51.038;7.216;2024-02-14T12:20:47;12.60;99.90
1129;DHT22;553;51.038;7.216;2024-02-14T12:23:20;12.70;99.90
1129;DHT22;553;51.038;7.216;2024-02-14T12:25:48;12.70;99.90
1129;DHT22;553;51.038;7.216;2024-02-14T12:28:19;12.60;99.90
1129;DHT22;553;51.038;7.216;2024-02-14T12:30:51;12.60;99.90
1129;DHT22;553;51.038;7.216;2024-02-14T12:33:27;12.60;99.90
1129;DHT22;553;51.038;7.216;2024-02-14T12:35:55;12.50;99.90
1129;DHT22;553;51.038;7.216;2024-02-14T12:38:24;12.50;99.90
1129;DHT22;553;51.038;7.216;2024-02-14T12:40:51;12.40;99.90
1129;DHT22;553;51.038;7.216;2024-02-14T12:43:21;12.40;99.90
1129;DHT22;553;51.038;7.216;2024-02-14T12:45:49;12.40;99.90
1129;DHT22;553;51.038;7.216;2024-02-14T12:48:22;12.40;99.90
1129;DHT22;553;51.038;7.216;2024-02-14T12:50:51;12.50;99.90
1129;DHT22;553;51.038;7.216;2024-02-14T12:53:19;12.50;99.90
1129;DHT22;553;51.038;7.216;2024-02-14T12:55:46;12.40;99.90
1129;DHT22;553;51.038;7.216;2024-02-14T12:58:13;12.40;99.90
1129;DHT22;553;51.038;7.216;2024-02-14T13:00:40;12.30;99.90
1129;DHT22;553;51.038;7.216;2024-02-14T13:03:08;12.10;99.90
1129;DHT22;553;51.038;7.216;2024-02-14T13:05:39;12.20;99.90
1129;DHT22;553;51.038;7.216;2024-02-14T13:08:06;12.10;99.90
1129;DHT22;553;51.038;7.216;2024-02-14T13:10:33;12.20;99.90
1129;DHT22;553;51.038;7.216;2024-02-14T13:13:00;12.20;99.90
1129;DHT22;553;51.038;7.216;2024-02-14T13:15:27;12.30;99.90
1129;DHT22;553;51.038;7.216;2024-02-14T13:17:53;12.20;99.90
1129;DHT22;553;51.038;7.216;2024-02-14T13:20:21;12.20;99.90
1129;DHT22;553;51.038;7.216;2024-02-14T13:22:49;12.20;99.90
1129;DHT22;553;51.038;7.216;2024-02-14T13:25:15;12.30;99.90
1129;DHT22;553;51.038;7.216;2024-02-14T13:27:44;12.20;99.90
1129;DHT22;553;51.038;7.216;2024-02-14T13:30:11;12.30;99.90
1129;DHT22;553;51.038;7.216;2024-02-14T13:32:38;12.80;99.90
1129;DHT22;553;51.038;7.216;2024-02-14T13:35:06;12.90;99.90
1129;DHT22;553;51.038;7.216;2024-02-14T13:37:33;12.80;99.90
1129;DHT22;553;51.038;7.216;2024-02-14T13:40:00;12.80;99.90
1129;DHT22;553;51.038;7.216;2024-02-14T13:42:27;12.80;99.90
1129;DHT22;553;51.038;7.216;2024-02-14T13:44:54;12.70;99.90
1129;DHT22;553;51.038;7.216;2024-02-14T13:47:21;12.60;99.90
1129;DHT22;553;51.038;7.216;2024-02-14T13:49:49;12.60;99.90
1129;DHT22;553;51.038;7.216;2024-02-14T13:52:16;12.60;99.90
1129;DHT22;553;51.038;7.216;2024-02-14T13:54:44;12.60;99.90
1129;DHT22;553;51.038;7.216;2024-02-14T13:57:11;12.50;99.90
1129;DHT22;553;51.038;7.216;2024-02-14T13:59:38;12.40;99.90
1129;DHT22;553;51.038;7.216;2024-02-14T14:02:05;12.50;99.90
1129;DHT22;553;51.038;7.216;2024-02-14T14:04:32;12.50;99.90
1129;DHT22;553;51.038;7.216;2024-02-14T14:07:01;12.50;99.90
1129;DHT22;553;51.038;7.216;2024-02-14T14:09:31;12.50;99.90
1129;DHT22;553;51.038;7.216;2024-02-14T14:12:00;12.50;99.90
1129;DHT22;553;51.038;7.216;2024-02-14T14:14:27;12.50;99.90
1129;DHT22;553;51.038;7.216;2024-02-14T14:16:55;12.50;99.90
1129;DHT22;553;51.038;7.216;2024-02-14T14:19:22;12.30;99.90
1129;DHT22;553;51.038;7.216;2024-02-14T14:21:48;12.30;99.90
1129;DHT22;553;51.038;7.216;2024-02-14T14:24:15;12.20;99.90
1129;DHT22;553;51.038;7.216;2024-02-14T14:26:42;12.20;99.90
1129;DHT22;553;51.038;7.216;2024-02-14T14:29:09;12.10;99.90
1129;DHT22;553;51.038;7.216;2024-02-14T14:31:36;12.00;99.90
1129;DHT22;553;51.038;7.216;2024-02-14T14:34:03;11.90;99.90
1129;DHT22;553;51.038;7.216;2024-02-14T14:36:30;11.80;99.90
1129;DHT22;553;51.038;7.216;2024-02-14T14:38:57;11.80;99.90
1129;DHT22;553;51.038;7.216;2024-02-14T14:41:24;11.80;99.90
1129;DHT22;553;51.038;7.216;2024-02-14T14:43:51;11.80;99.90
1129;DHT22;553;51.038;7.216;2024-02-14T14:46:17;11.70;99.90
1129;DHT22;553;51.038;7.216;2024-02-14T14:48:47;11.70;99.90
1129;DHT22;553;51.038;7.216;2024-02-14T14:51:14;11.70;99.90
1129;DHT22;553;51.038;7.216;2024-02-14T14:53:41;11.70;99.90
1129;DHT22;553;51.038;7.216;2024-02-14T14:56:08;11.60;99.90
1129;DHT22;553;51.038;7.216;2024-02-14T14:58:35;11.60;99.90
1129;DHT22;553;51.038;7.216;2024-02-14T15:01:03;11.60;99.90
1129;DHT22;553;51.038;7.216;2024-02-14T15:03:31;11.60;99.90
1129;DHT22;553;51.038;7.216;2024-02-14T15:05:58;11.60;99.90
1129;DHT22;553;51.038;7.216;2024-02-14T15:08:25;11.60;99.90
1129;DHT22;553;51.038;7.216;2024-02-14T15:10:54;11.50;99.90
1129;DHT22;553;51.038;7.216;2024-02-14T15:13:22;11.40;99.90
1129;DHT22;553;51.038;7.216;2024-02-14T15:15:51;11.40;99.90
1129;DHT22;553;51.038;7.216;2024-02-14T15:18:19;11.30;99.90
1129;DHT22;553;51.038;7.216;2024-02-14T15:20:46;11.30;99.90
1129;DHT22;553;51.038;7.216;2024-02-14T15:23:13;11.30;99.90
1129;DHT22;553;51.038;7.216;2024-02-14T15:25:40;11.30;99.90
1129;DHT22;553;51.038;7.216;2024-02-14T15:28:09;11.20;99.90
1129;DHT22;553;51.038;7.216;2024-02-14T15:30:40;11.20;99.90
1129;DHT22;553;51.038;7.216;2024-02-14T15:33:25;11.20;99.90
1129;DHT22;553;51.038;7.216;2024-02-14T15:35:57;11.30;99.90
1129;DHT22;553;51.038;7.216;2024-02-14T15:38:25;11.20;99.90
1129;DHT22;553;51.038;7.216;2024-02-14T15:40:54;11.10;99.90
1129;DHT22;553;51.038;7.216;2024-02-14T15:43:24;11.20;99.90
1129;DHT22;553;51.038;7.216;2024-02-14T15:45:52;11.20;99.90
1129;DHT22;553;51.038;7.216;2024-02-14T15:48:19;11.20;99.90
1129;DHT22;553;51.038;7.216;2024-02-14T15:50:46;11.20;99.90
1129;DHT22;553;51.038;7.216;2024-02-14T15:53:14;11.10;99.90
1129;DHT22;553;51.038;7.216;2024-02-14T15:55:42;11.10;99.90
1129;DHT22;553;51.038;7.216;2024-02-14T15:58:09;11.10;99.90
1129;DHT22;553;51.038;7.216;2024-02-14T16:00:42;11.10;99.90
1129;DHT22;553;51.038;7.216;2024-02-14T16:03:09;11.10;99.90
1129;DHT22;553;51.038;7.216;2024-02-14T16:05:38;11.10;99.90
1129;DHT22;553;51.038;7.216;2024-02-14T16:08:06;11.20;99.90
1129;DHT22;553;51.038;7.216;2024-02-14T16:10:34;11.20;99.90
1129;DHT22;553;51.038;7.216;2024-02-14T16:13:01;11.20;99.90
1129;DHT22;553;51.038;7.216;2024-02-14T16:15:28;11.20;99.90
1129;DHT22;553;51.038;7.216;2024-02-14T16:17:55;11.20;99.90
1129;DHT22;553;51.038;7.216;2024-02-14T16:20:22;11.10;99.90
1129;DHT22;553;51.038;7.216;2024-02-14T16:22:49;11.10;99.90
1129;DHT22;553;51.038;7.216;2024-02-14T16:25:17;11.10;99.90
1129;DHT22;553;51.038;7.216;2024-02-14T16:27:43;11.10;99.90
1129;DHT22;553;51.038;7.216;2024-02-14T16:30:12;11.10;99.90
1129;DHT22;553;51.038;7.216;2024-02-14T16:32:41;11.10;99.90